createdAt,value
2022-10-10T00:00:34.612Z,51.72
2022-10-10T00:01:34.680Z,49.15
2022-10-10T00:02:34.564Z,49.47
2022-10-10T00:03:34.559Z,47.86
2022-10-10T00:04:34.553Z,47.21
2022-10-10T00:05:34.580Z,51.40
2022-10-10T00:06:34.538Z,38.51
2022-10-10T00:07:34.539Z,45.60
2022-10-10T00:08:34.524Z,46.89
2022-10-10T00:09:34.519Z,48.66
2022-10-10T00:10:34.534Z,39.32
2022-10-10T00:11:34.515Z,38.67
2022-10-10T00:12:34.492Z,40.77
2022-10-10T00:13:34.485Z,41.09
2022-10-10T00:14:34.478Z,41.41
2022-10-10T00:15:34.500Z,47.86
2022-10-10T00:16:35.462Z,44.31
2022-10-10T00:17:34.455Z,48.34
2022-10-10T00:18:34.446Z,42.38
2022-10-10T00:19:34.439Z,43.51
2022-10-10T00:20:34.431Z,51.08
2022-10-10T00:21:34.447Z,43.83
2022-10-10T00:22:34.417Z,37.54
2022-10-10T00:23:34.409Z,36.90
2022-10-10T00:24:34.398Z,41.41
2022-10-10T00:25:34.397Z,49.95
2022-10-10T00:26:34.421Z,47.86
2022-10-10T00:27:34.376Z,39.64
2022-10-10T00:28:34.412Z,41.89
2022-10-10T00:29:34.361Z,39.32
2022-10-10T00:30:34.354Z,38.51
2022-10-10T00:31:34.373Z,45.44
2022-10-10T00:32:34.341Z,45.60
2022-10-10T00:33:34.337Z,50.11
2022-10-10T00:34:34.322Z,47.21
2022-10-10T00:35:34.320Z,45.12
2022-10-10T00:36:34.336Z,42.54
2022-10-10T00:37:34.301Z,42.06
2022-10-10T00:38:34.293Z,37.87
2022-10-10T00:39:34.290Z,43.02
2022-10-10T00:40:34.281Z,47.70
2022-10-10T00:41:34.298Z,54.30
2022-10-10T00:42:34.265Z,43.18
2022-10-10T00:43:34.259Z,41.09
2022-10-10T00:44:34.243Z,41.25
2022-10-10T00:45:35.248Z,41.57
2022-10-10T00:46:34.265Z,40.61
2022-10-10T00:47:34.231Z,40.93
2022-10-10T00:48:34.228Z,47.53
2022-10-10T00:49:34.211Z,45.12
2022-10-10T00:50:34.211Z,43.83
2022-10-10T00:51:34.227Z,42.06
2022-10-10T00:52:34.196Z,41.89
2022-10-10T00:53:35.184Z,40.12
2022-10-10T00:54:34.180Z,39.16
2022-10-10T00:55:34.173Z,43.67
2022-10-10T00:56:34.188Z,42.54
2022-10-10T00:57:34.153Z,43.83
2022-10-10T00:58:34.139Z,47.70
2022-10-10T00:59:35.140Z,48.34
2022-10-10T01:00:34.131Z,47.21
2022-10-10T01:01:34.153Z,44.47
2022-10-10T01:02:34.118Z,45.76
2022-10-10T01:03:34.111Z,49.63
2022-10-10T01:04:34.107Z,49.15
2022-10-10T01:05:34.096Z,45.76
2022-10-10T01:06:34.113Z,43.34
2022-10-10T01:07:34.076Z,57.04
2022-10-10T01:08:34.074Z,55.27
2022-10-10T01:09:34.064Z,49.79
2022-10-10T01:10:34.058Z,50.92
2022-10-10T01:11:34.079Z,52.21
2022-10-10T01:12:34.046Z,49.31
2022-10-10T01:13:34.032Z,46.41
2022-10-10T01:14:34.024Z,45.44
2022-10-10T01:15:34.019Z,49.15
2022-10-10T01:16:34.037Z,46.89
2022-10-10T01:17:34.004Z,47.37
2022-10-10T01:18:33.996Z,45.92
2022-10-10T01:19:33.988Z,47.53
2022-10-10T01:20:33.975Z,46.89
2022-10-10T01:21:33.998Z,44.15
2022-10-10T01:22:33.967Z,45.76
2022-10-10T01:23:33.955Z,42.70
2022-10-10T01:24:33.950Z,41.41
2022-10-10T01:25:33.956Z,44.47
2022-10-10T01:26:33.960Z,43.02
2022-10-10T01:27:33.927Z,39.80
2022-10-10T01:28:33.929Z,43.02
2022-10-10T01:29:33.912Z,46.25
2022-10-10T01:30:33.905Z,47.05
2022-10-10T01:31:33.920Z,50.76
2022-10-10T01:32:33.887Z,43.51
2022-10-10T01:33:33.881Z,45.76
2022-10-10T01:34:33.873Z,41.09
2022-10-10T01:35:33.865Z,41.41
2022-10-10T01:36:33.882Z,47.37
2022-10-10T01:37:33.853Z,43.18
2022-10-10T01:38:33.844Z,46.73
2022-10-10T01:39:33.838Z,45.44
2022-10-10T01:40:33.828Z,44.96
2022-10-10T01:41:33.845Z,53.33
2022-10-10T01:42:33.807Z,49.15
2022-10-10T01:43:33.803Z,44.15
2022-10-10T01:44:33.798Z,45.28
2022-10-10T01:45:33.788Z,45.76
2022-10-10T01:46:33.806Z,42.70
2022-10-10T01:47:33.771Z,44.79
2022-10-10T01:48:33.763Z,37.54
2022-10-10T01:49:33.756Z,43.18
2022-10-10T01:50:33.753Z,41.41
2022-10-10T01:51:33.767Z,43.02
2022-10-10T01:52:33.730Z,42.86
2022-10-10T01:53:33.744Z,42.22
2022-10-10T01:54:33.717Z,42.06
2022-10-10T01:55:33.709Z,50.27
2022-10-10T01:56:33.732Z,42.70
2022-10-10T01:57:33.695Z,46.89
2022-10-10T01:58:33.683Z,45.60
2022-10-10T01:59:33.677Z,43.51
2022-10-10T02:00:33.663Z,42.54
2022-10-10T02:01:34.685Z,47.86
2022-10-10T02:02:34.656Z,48.02
2022-10-10T02:03:33.648Z,44.79
2022-10-10T02:04:33.640Z,48.82
2022-10-10T02:05:33.634Z,49.15
2022-10-10T02:06:33.655Z,50.76
2022-10-10T02:07:33.620Z,46.25
2022-10-10T02:08:33.611Z,48.34
2022-10-10T02:09:33.602Z,47.70
2022-10-10T02:10:33.597Z,47.86
2022-10-10T02:11:33.621Z,41.57
2022-10-10T02:12:33.588Z,43.51
2022-10-10T02:13:33.577Z,45.28
2022-10-10T02:14:33.565Z,45.28
2022-10-10T02:15:33.557Z,46.08
2022-10-10T02:16:33.581Z,48.66
2022-10-10T02:17:33.544Z,43.83
2022-10-10T02:18:33.532Z,44.63
2022-10-10T02:19:33.529Z,48.98
2022-10-10T02:20:33.527Z,52.69
2022-10-10T02:21:33.514Z,47.70
2022-10-10T02:22:33.535Z,46.89
2022-10-10T02:23:33.501Z,45.92
2022-10-10T02:24:33.490Z,43.67
2022-10-10T02:25:33.482Z,43.67
2022-10-10T02:26:33.478Z,46.25
2022-10-10T02:27:33.494Z,43.67
2022-10-10T02:28:33.481Z,41.57
2022-10-10T02:29:33.454Z,43.34
2022-10-10T02:30:33.451Z,47.37
2022-10-10T02:31:33.470Z,46.57
2022-10-10T02:32:33.431Z,48.18
2022-10-10T02:33:33.420Z,44.79
2022-10-10T02:34:33.419Z,43.18
2022-10-10T02:35:33.406Z,44.63
2022-10-10T02:36:33.422Z,49.15
2022-10-10T02:37:33.394Z,44.79
2022-10-10T02:38:33.406Z,46.57
2022-10-10T02:39:33.380Z,43.99
2022-10-10T02:40:33.369Z,50.76
2022-10-10T02:41:33.358Z,46.41
2022-10-10T02:42:33.352Z,50.11
2022-10-10T02:43:33.370Z,48.50
2022-10-10T02:44:33.331Z,52.69
2022-10-10T02:45:33.326Z,46.57
2022-10-10T02:46:33.316Z,47.53
2022-10-10T02:47:33.297Z,47.05
2022-10-10T02:48:34.322Z,47.05
2022-10-10T02:49:33.297Z,48.98
2022-10-10T02:50:33.287Z,49.63
2022-10-10T02:51:33.277Z,44.79
2022-10-10T02:52:33.269Z,44.96
2022-10-10T02:53:33.283Z,41.57
2022-10-10T02:54:33.254Z,49.79
2022-10-10T02:55:33.250Z,49.15
2022-10-10T02:56:33.236Z,51.56
2022-10-10T02:57:33.226Z,47.37
2022-10-10T02:58:33.242Z,45.44
2022-10-10T02:59:33.210Z,45.76
2022-10-10T03:00:33.209Z,54.30
2022-10-10T03:01:33.199Z,49.95
2022-10-10T03:02:33.191Z,53.01
2022-10-10T03:03:33.204Z,46.08
2022-10-10T03:04:33.171Z,47.21
2022-10-10T03:05:33.163Z,52.05
2022-10-10T03:06:33.162Z,48.66
2022-10-10T03:07:33.151Z,53.82
2022-10-10T03:08:33.164Z,53.50
2022-10-10T03:09:33.131Z,50.11
2022-10-10T03:10:33.121Z,49.95
2022-10-10T03:11:33.116Z,55.59
2022-10-10T03:12:33.108Z,48.02
2022-10-10T03:13:33.132Z,47.53
2022-10-10T03:14:33.093Z,48.34
2022-10-10T03:15:34.086Z,49.31
2022-10-10T03:16:33.077Z,49.79
2022-10-10T03:17:33.072Z,49.15
2022-10-10T03:18:33.088Z,58.97
2022-10-10T03:19:33.053Z,55.43
2022-10-10T03:20:33.047Z,52.37
2022-10-10T03:21:33.039Z,53.50
2022-10-10T03:22:33.027Z,50.11
2022-10-10T03:23:33.046Z,54.62
2022-10-10T03:24:33.011Z,48.82
2022-10-10T03:25:33.006Z,58.01
2022-10-10T03:26:32.996Z,56.40
2022-10-10T03:27:32.985Z,58.49
2022-10-10T03:28:33.045Z,49.31
2022-10-10T03:29:32.972Z,50.27
2022-10-10T03:30:32.961Z,55.43
2022-10-10T03:31:32.952Z,52.37
2022-10-10T03:32:32.946Z,48.98
2022-10-10T03:33:32.960Z,49.47
2022-10-10T03:34:32.931Z,48.02
2022-10-10T03:35:32.922Z,52.53
2022-10-10T03:36:32.912Z,48.50
2022-10-10T03:37:32.904Z,48.82
2022-10-10T03:38:32.919Z,49.31
2022-10-10T03:39:32.890Z,48.18
2022-10-10T03:40:32.874Z,49.15
2022-10-10T03:41:32.868Z,52.53
2022-10-10T03:42:32.863Z,52.53
2022-10-10T03:43:32.877Z,51.72
2022-10-10T03:44:32.843Z,50.76
2022-10-10T03:45:32.836Z,51.40
2022-10-10T03:46:32.828Z,50.92
2022-10-10T03:47:32.818Z,55.91
2022-10-10T03:48:32.837Z,48.02
2022-10-10T03:49:32.810Z,50.43
2022-10-10T03:50:32.801Z,58.97
2022-10-10T03:51:32.789Z,56.24
2022-10-10T03:52:32.784Z,52.37
2022-10-10T03:53:32.797Z,53.17
2022-10-10T03:54:32.763Z,48.50
2022-10-10T03:55:32.754Z,49.31
2022-10-10T03:56:32.749Z,47.21
2022-10-10T03:57:32.739Z,58.97
2022-10-10T03:58:32.755Z,54.46
2022-10-10T03:59:32.724Z,49.31
2022-10-10T04:00:32.715Z,55.91
2022-10-10T04:01:32.771Z,49.63
2022-10-10T04:02:32.701Z,54.30
2022-10-10T04:03:32.723Z,49.95
2022-10-10T04:04:32.684Z,49.15
2022-10-10T04:05:32.677Z,56.07
2022-10-10T04:06:32.667Z,51.72
2022-10-10T04:07:32.686Z,50.60
2022-10-10T04:08:32.679Z,49.15
2022-10-10T04:09:32.647Z,48.66
2022-10-10T04:10:32.641Z,50.76
2022-10-10T04:11:32.629Z,56.40
2022-10-10T04:12:32.621Z,48.82
2022-10-10T04:13:32.645Z,52.53
2022-10-10T04:14:32.604Z,54.62
2022-10-10T04:15:32.598Z,54.95
2022-10-10T04:16:32.585Z,50.76
2022-10-10T04:17:32.581Z,51.08
2022-10-10T04:18:32.597Z,57.04
2022-10-10T04:19:32.563Z,50.43
2022-10-10T04:20:32.559Z,52.21
2022-10-10T04:21:32.548Z,51.88
2022-10-10T04:22:32.543Z,54.62
2022-10-10T04:23:32.556Z,53.01
2022-10-10T04:24:32.531Z,53.98
2022-10-10T04:25:32.519Z,53.98
2022-10-10T04:26:32.513Z,53.01
2022-10-10T04:27:32.504Z,60.10
2022-10-10T04:28:32.586Z,55.59
2022-10-10T04:29:32.488Z,55.27
2022-10-10T04:30:32.482Z,57.69
2022-10-10T04:31:32.477Z,60.59
2022-10-10T04:32:32.556Z,53.50
2022-10-10T04:33:32.483Z,62.68
2022-10-10T04:34:32.451Z,53.66
2022-10-10T04:35:32.445Z,55.11
2022-10-10T04:36:32.437Z,53.50
2022-10-10T04:37:32.427Z,63.00
2022-10-10T04:38:32.443Z,58.65
2022-10-10T04:39:32.411Z,60.91
2022-10-10T04:40:32.405Z,60.75
2022-10-10T04:41:32.397Z,59.14
2022-10-10T04:42:32.387Z,62.36
2022-10-10T04:43:32.408Z,59.62
2022-10-10T04:44:32.372Z,55.91
2022-10-10T04:45:37.211Z,60.75
2022-10-10T04:46:34.358Z,61.23
2022-10-10T04:47:32.349Z,57.69
2022-10-10T04:48:32.364Z,58.97
2022-10-10T04:49:32.339Z,58.97
2022-10-10T04:50:32.311Z,59.94
2022-10-10T04:51:33.314Z,59.46
2022-10-10T04:52:32.305Z,58.65
2022-10-10T04:53:32.321Z,57.52
2022-10-10T04:54:32.297Z,56.88
2022-10-10T04:55:32.287Z,58.33
2022-10-10T04:56:32.275Z,59.62
2022-10-10T04:57:32.265Z,53.50
2022-10-10T04:58:32.283Z,56.88
2022-10-10T04:59:32.248Z,61.55
2022-10-10T05:00:32.248Z,61.07
2022-10-10T05:01:32.257Z,60.42
2022-10-10T05:02:32.224Z,60.75
2022-10-10T05:03:32.246Z,58.65
2022-10-10T05:04:32.212Z,56.56
2022-10-10T05:05:32.206Z,60.75
2022-10-10T05:06:32.200Z,53.33
2022-10-10T05:07:32.190Z,60.75
2022-10-10T05:08:32.206Z,57.52
2022-10-10T05:09:32.174Z,58.49
2022-10-10T05:10:32.166Z,54.79
2022-10-10T05:11:32.159Z,58.17
2022-10-10T05:12:32.149Z,57.85
2022-10-10T05:13:32.146Z,58.33
2022-10-10T05:14:32.158Z,61.07
2022-10-10T05:15:32.123Z,60.75
2022-10-10T05:16:32.119Z,52.69
2022-10-10T05:17:32.113Z,59.78
2022-10-10T05:18:32.099Z,57.52
2022-10-10T05:19:32.124Z,58.97
2022-10-10T05:20:32.086Z,59.78
2022-10-10T05:21:32.075Z,58.17
2022-10-10T05:22:32.073Z,60.26
2022-10-10T05:23:32.064Z,59.14
2022-10-10T05:24:32.075Z,58.65
2022-10-10T05:25:32.040Z,51.40
2022-10-10T05:26:32.037Z,57.04
2022-10-10T05:27:32.028Z,58.17
2022-10-10T05:28:32.064Z,54.95
2022-10-10T05:29:32.036Z,59.14
2022-10-10T05:30:32.011Z,61.23
2022-10-10T05:31:32.015Z,57.52
2022-10-10T05:32:31.992Z,55.75
2022-10-10T05:33:31.986Z,60.10
2022-10-10T05:34:32.002Z,56.72
2022-10-10T05:35:31.969Z,61.71
2022-10-10T05:36:31.967Z,59.94
2022-10-10T05:37:31.949Z,55.43
2022-10-10T05:38:31.956Z,60.26
2022-10-10T05:39:31.966Z,59.94
2022-10-10T05:40:31.934Z,58.81
2022-10-10T05:41:31.929Z,55.91
2022-10-10T05:42:31.915Z,55.91
2022-10-10T05:43:31.911Z,58.17
2022-10-10T05:44:31.926Z,60.75
2022-10-10T05:45:31.889Z,59.78
2022-10-10T05:46:31.884Z,54.95
2022-10-10T05:47:31.883Z,57.69
2022-10-10T05:48:31.869Z,56.24
2022-10-10T05:49:31.891Z,56.56
2022-10-10T05:50:31.854Z,60.75
2022-10-10T05:51:31.842Z,56.40
2022-10-10T05:52:31.835Z,59.14
2022-10-10T05:53:32.832Z,62.52
2022-10-10T05:54:31.842Z,57.04
2022-10-10T05:55:31.820Z,60.75
2022-10-10T05:56:31.812Z,57.36
2022-10-10T05:57:31.793Z,57.69
2022-10-10T05:58:31.789Z,55.27
2022-10-10T05:59:31.815Z,61.55
2022-10-10T06:00:31.774Z,57.04
2022-10-10T06:01:31.773Z,59.94
2022-10-10T06:02:31.809Z,61.23
2022-10-10T06:03:31.752Z,56.24
2022-10-10T06:04:31.772Z,54.95
2022-10-10T06:05:31.742Z,55.75
2022-10-10T06:06:31.730Z,60.91
2022-10-10T06:07:45.857Z,54.30
2022-10-10T06:08:33.720Z,58.17
2022-10-10T06:09:31.733Z,53.33
2022-10-10T06:10:31.709Z,56.88
2022-10-10T06:11:31.697Z,56.72
2022-10-10T06:12:31.679Z,58.33
2022-10-10T06:13:31.682Z,61.07
2022-10-10T06:14:31.699Z,56.40
2022-10-10T06:15:31.660Z,54.62
2022-10-10T06:16:31.654Z,57.04
2022-10-10T06:17:31.643Z,57.04
2022-10-10T06:18:31.633Z,55.59
2022-10-10T06:19:31.666Z,57.36
2022-10-10T06:20:31.620Z,57.36
2022-10-10T06:21:31.609Z,53.33
2022-10-10T06:22:31.599Z,53.50
2022-10-10T06:23:31.599Z,54.62
2022-10-10T06:24:31.618Z,55.11
2022-10-10T06:25:42.452Z,57.69
2022-10-10T06:26:33.578Z,56.56
2022-10-10T06:27:31.558Z,55.75
2022-10-10T06:28:31.612Z,50.27
2022-10-10T06:29:31.578Z,59.14
2022-10-10T06:30:31.535Z,53.66
2022-10-10T06:31:31.530Z,51.72
2022-10-10T06:32:31.522Z,56.24
2022-10-10T06:33:31.509Z,53.50
2022-10-10T06:34:31.506Z,53.01
2022-10-10T06:35:31.526Z,51.88
2022-10-10T06:36:31.489Z,57.04
2022-10-10T06:37:31.485Z,56.07
2022-10-10T06:38:31.499Z,54.79
2022-10-10T06:39:31.489Z,52.21
2022-10-10T06:40:31.459Z,49.63
2022-10-10T06:41:31.449Z,53.82
2022-10-10T06:42:31.435Z,55.43
2022-10-10T06:43:31.427Z,58.17
2022-10-10T06:44:31.456Z,51.88
2022-10-10T06:45:31.416Z,52.85
2022-10-10T06:46:31.404Z,54.30
2022-10-10T06:47:31.393Z,59.62
2022-10-10T06:48:31.390Z,54.62
2022-10-10T06:49:31.418Z,55.11
2022-10-10T06:50:31.372Z,49.15
2022-10-10T06:51:31.377Z,52.85
2022-10-10T06:52:31.358Z,50.27
2022-10-10T06:53:31.352Z,54.62
2022-10-10T06:54:31.342Z,57.69
2022-10-10T06:55:31.362Z,54.30
2022-10-10T06:56:31.331Z,51.08
2022-10-10T06:57:31.319Z,56.07
2022-10-10T06:58:31.321Z,58.65
2022-10-10T06:59:31.299Z,51.24
2022-10-10T07:00:31.399Z,53.66
2022-10-10T07:01:31.346Z,59.46
2022-10-10T07:02:32.283Z,56.72
2022-10-10T07:03:31.286Z,54.79
2022-10-10T07:04:31.263Z,50.92
2022-10-10T07:05:31.281Z,53.66
2022-10-10T07:06:34.664Z,55.91
2022-10-10T07:07:32.241Z,52.37
2022-10-10T07:08:31.230Z,53.17
2022-10-10T07:09:31.218Z,51.40
2022-10-10T07:10:31.244Z,51.40
2022-10-10T07:11:31.210Z,53.98
2022-10-10T07:12:36.488Z,55.75
2022-10-10T07:13:33.197Z,57.85
2022-10-10T07:14:31.184Z,57.20
2022-10-10T07:15:31.198Z,53.33
2022-10-10T07:16:31.170Z,54.14
2022-10-10T07:17:31.166Z,57.52
2022-10-10T07:18:31.153Z,49.63
2022-10-10T07:19:31.148Z,54.30
2022-10-10T07:20:31.164Z,52.05
2022-10-10T07:21:31.133Z,51.72
2022-10-10T07:22:32.121Z,55.59
2022-10-10T07:23:31.114Z,53.01
2022-10-10T07:24:31.112Z,51.08
2022-10-10T07:25:31.124Z,49.47
2022-10-10T07:26:31.112Z,51.72
2022-10-10T07:27:31.078Z,49.15
2022-10-10T07:28:32.138Z,52.21
2022-10-10T07:29:31.069Z,55.27
2022-10-10T07:30:31.084Z,52.85
2022-10-10T07:31:31.051Z,48.34
2022-10-10T07:33:03.563Z,51.40
2022-10-10T07:33:31.039Z,53.98
2022-10-10T07:34:31.031Z,47.37
2022-10-10T07:35:31.045Z,49.47
2022-10-10T07:36:31.015Z,53.33
2022-10-10T07:37:31.000Z,53.01
2022-10-10T07:38:31.997Z,52.37
2022-10-10T07:39:30.988Z,50.60
2022-10-10T07:40:31.007Z,50.11
2022-10-10T07:41:30.973Z,49.79
2022-10-10T07:42:30.953Z,57.69
2022-10-10T07:43:31.963Z,50.11
2022-10-10T07:44:34.410Z,46.57
2022-10-10T07:45:31.974Z,53.33
2022-10-10T07:46:30.937Z,47.70
2022-10-10T07:47:30.927Z,53.66
2022-10-10T07:48:30.924Z,48.02
2022-10-10T07:49:30.916Z,51.56
2022-10-10T07:50:30.942Z,52.21
2022-10-10T07:51:30.906Z,54.79
2022-10-10T07:52:30.901Z,50.27
2022-10-10T07:53:30.885Z,47.21
2022-10-10T07:54:30.873Z,51.72
2022-10-10T07:55:30.871Z,47.05
2022-10-10T07:56:30.882Z,51.56
2022-10-10T07:57:30.863Z,52.21
2022-10-10T07:58:30.846Z,60.75
2022-10-10T07:59:30.839Z,52.85
2022-10-10T08:00:30.846Z,53.50
2022-10-10T08:01:30.929Z,52.37
2022-10-10T08:02:30.815Z,48.34
2022-10-10T08:03:30.815Z,48.50
2022-10-10T08:04:30.810Z,45.60
2022-10-10T08:05:30.799Z,48.98
2022-10-10T08:06:30.818Z,57.20
2022-10-10T08:07:30.784Z,52.05
2022-10-10T08:08:33.030Z,52.69
2022-10-10T08:09:30.772Z,43.51
2022-10-10T08:10:30.766Z,44.79
2022-10-10T08:11:30.784Z,50.76
2022-10-10T08:12:30.753Z,49.79
2022-10-10T08:13:30.750Z,49.63
2022-10-10T08:14:30.743Z,48.98
2022-10-10T08:15:33.849Z,52.85
2022-10-10T08:16:30.766Z,55.75
2022-10-10T08:17:30.720Z,50.60
2022-10-10T08:18:30.716Z,54.30
2022-10-10T08:19:30.700Z,49.15
2022-10-10T08:20:30.687Z,46.89
2022-10-10T08:21:30.707Z,53.98
2022-10-10T08:22:30.685Z,58.17
2022-10-10T08:23:30.670Z,49.15
2022-10-10T08:24:30.661Z,51.72
2022-10-10T08:25:30.651Z,52.21
2022-10-10T08:26:31.677Z,50.43
2022-10-10T08:27:30.656Z,59.30
2022-10-10T08:28:30.681Z,49.63
2022-10-10T08:29:30.635Z,47.37
2022-10-10T08:30:30.623Z,51.40
2022-10-10T08:31:30.643Z,55.27
2022-10-10T08:32:30.615Z,48.18
2022-10-10T08:33:30.612Z,50.76
2022-10-10T08:34:30.596Z,53.66
2022-10-10T08:35:30.591Z,50.92
2022-10-10T08:36:30.613Z,47.21
2022-10-10T08:37:35.236Z,55.43
2022-10-10T08:38:32.566Z,55.11
2022-10-10T08:39:30.572Z,49.31
2022-10-10T08:40:30.571Z,51.40
2022-10-10T08:41:30.587Z,47.37
2022-10-10T08:42:30.545Z,53.17
2022-10-10T08:43:30.543Z,54.62
2022-10-10T08:44:30.527Z,57.52
2022-10-10T08:45:30.538Z,51.56
2022-10-10T08:46:30.547Z,51.72
2022-10-10T08:47:30.511Z,50.60
2022-10-10T08:48:30.506Z,60.75
2022-10-10T08:49:30.489Z,49.79
2022-10-10T08:50:30.480Z,50.43
2022-10-10T08:51:30.506Z,54.46
2022-10-10T08:52:30.471Z,50.43
2022-10-10T08:53:30.464Z,51.40
2022-10-10T08:54:30.450Z,51.56
2022-10-10T08:55:30.441Z,56.24
2022-10-10T08:56:30.443Z,57.69
2022-10-10T08:57:30.447Z,53.82
2022-10-10T08:58:30.421Z,50.92
2022-10-10T08:59:30.406Z,55.11
2022-10-10T09:00:30.563Z,51.88
2022-10-10T09:01:30.471Z,54.46
2022-10-10T09:02:50.099Z,56.72
2022-10-10T09:03:32.417Z,57.04
2022-10-10T09:04:30.373Z,57.04
2022-10-10T09:05:30.375Z,54.95
2022-10-10T09:06:30.356Z,58.01
2022-10-10T09:07:30.376Z,54.14
2022-10-10T09:08:30.342Z,53.66
2022-10-10T09:09:30.342Z,54.14
2022-10-10T09:10:30.328Z,56.07
2022-10-10T09:11:30.316Z,54.62
2022-10-10T09:12:30.350Z,49.79
2022-10-10T09:13:30.311Z,49.79
2022-10-10T09:14:30.324Z,59.14
2022-10-10T09:15:30.295Z,59.46
2022-10-10T09:16:30.287Z,55.27
2022-10-10T09:17:30.328Z,56.40
2022-10-10T09:18:30.273Z,54.62
2022-10-10T09:19:30.260Z,54.95
2022-10-10T09:20:30.256Z,59.94
2022-10-10T09:21:30.243Z,53.82
2022-10-10T09:22:30.264Z,55.27
2022-10-10T09:23:30.238Z,54.30
2022-10-10T09:24:30.229Z,57.36
2022-10-10T09:25:30.234Z,47.37
2022-10-10T09:26:30.211Z,58.17
2022-10-10T09:27:30.327Z,52.69
2022-10-10T09:28:30.238Z,52.69
2022-10-10T09:29:30.183Z,52.37
2022-10-10T09:30:30.180Z,51.08
2022-10-10T09:31:30.166Z,50.27
2022-10-10T09:32:30.188Z,49.47
2022-10-10T09:33:30.154Z,47.70
2022-10-10T09:34:30.144Z,50.60
2022-10-10T09:35:30.126Z,50.92
2022-10-10T09:36:31.132Z,48.34
2022-10-10T09:37:46.451Z,53.01
2022-10-10T09:38:32.112Z,50.92
2022-10-10T09:39:30.113Z,50.11
2022-10-10T09:40:30.095Z,48.98
2022-10-10T09:41:30.093Z,55.59
2022-10-10T09:42:30.108Z,48.50
2022-10-10T09:43:30.072Z,45.28
2022-10-10T09:44:30.065Z,40.44
2022-10-10T09:45:30.052Z,56.07
2022-10-10T09:46:30.057Z,55.43
2022-10-10T09:47:30.040Z,43.02
2022-10-10T09:48:30.088Z,47.86
2022-10-10T09:49:30.052Z,52.37
2022-10-10T09:50:30.024Z,48.98
2022-10-10T09:51:30.015Z,49.31
2022-10-10T09:52:30.038Z,52.53
2022-10-10T09:53:29.998Z,55.75
2022-10-10T09:54:29.988Z,50.11
2022-10-10T09:55:29.995Z,46.25
2022-10-10T09:56:30.682Z,49.31
2022-10-10T09:57:29.972Z,50.76
2022-10-10T09:58:29.983Z,50.60
2022-10-10T09:59:29.952Z,44.79
2022-10-10T10:00:29.946Z,49.95
2022-10-10T10:01:30.007Z,49.47
2022-10-10T10:02:29.931Z,50.92
2022-10-10T10:03:29.952Z,49.63
2022-10-10T10:04:29.952Z,47.86
2022-10-10T10:05:29.904Z,43.83
2022-10-10T10:06:29.906Z,45.28
2022-10-10T10:07:29.895Z,52.37
2022-10-10T10:08:29.909Z,47.21
2022-10-10T10:09:29.873Z,48.66
2022-10-10T10:10:29.867Z,50.92
2022-10-10T10:11:29.866Z,53.01
2022-10-10T10:12:29.857Z,50.11
2022-10-10T10:13:29.865Z,49.31
2022-10-10T10:14:29.837Z,52.85
2022-10-10T10:15:29.835Z,53.98
2022-10-10T10:16:29.821Z,49.15
2022-10-10T10:17:29.811Z,50.92
2022-10-10T10:18:29.827Z,49.63
2022-10-10T10:19:29.796Z,48.18
2022-10-10T10:20:29.791Z,53.82
2022-10-10T10:21:29.788Z,51.08
2022-10-10T10:22:29.773Z,51.88
2022-10-10T10:23:29.799Z,48.34
2022-10-10T10:24:29.760Z,53.50
2022-10-10T10:25:31.417Z,49.31
2022-10-10T10:26:29.741Z,49.79
2022-10-10T10:27:29.740Z,50.60
2022-10-10T10:28:29.794Z,43.51
2022-10-10T10:29:29.723Z,48.34
2022-10-10T10:30:29.712Z,58.17
2022-10-10T10:31:29.726Z,51.72
2022-10-10T10:32:29.706Z,43.83
2022-10-10T10:33:29.713Z,49.95
2022-10-10T10:34:29.685Z,52.21
2022-10-10T10:35:29.684Z,51.40
2022-10-10T10:36:29.669Z,47.37
2022-10-10T10:37:29.661Z,44.47
2022-10-10T10:38:29.682Z,48.34
2022-10-10T10:39:29.691Z,47.70
2022-10-10T10:40:29.638Z,49.15
2022-10-10T10:41:29.628Z,48.34
2022-10-10T10:42:29.617Z,41.73
2022-10-10T10:43:29.637Z,46.08
2022-10-10T10:44:29.596Z,51.88
2022-10-10T10:45:30.595Z,51.88
2022-10-10T10:46:29.587Z,43.83
2022-10-10T10:47:29.618Z,44.79
2022-10-10T10:48:29.598Z,49.63
2022-10-10T10:49:29.562Z,52.69
2022-10-10T10:50:29.555Z,47.21
2022-10-10T10:51:29.538Z,51.40
2022-10-10T10:52:30.552Z,51.72
2022-10-10T10:53:29.563Z,51.56
2022-10-10T10:54:29.528Z,47.70
2022-10-10T10:55:32.933Z,49.63
2022-10-10T10:56:29.545Z,53.33
2022-10-10T10:57:36.986Z,48.18
2022-10-10T11:00:16.557Z,50.11
2022-10-10T11:01:23.156Z,48.02
2022-10-10T11:01:55.053Z,45.44
2022-10-10T11:02:54.996Z,47.86
2022-10-10T11:05:20.844Z,52.53
2022-10-10T11:05:24.972Z,52.05
2022-10-10T11:05:36.772Z,53.66
2022-10-10T11:06:31.541Z,45.76
2022-10-10T11:07:29.454Z,46.25
2022-10-10T11:08:29.453Z,52.05
2022-10-10T11:09:49.113Z,46.57
2022-10-10T11:10:31.401Z,51.08
2022-10-10T11:11:29.393Z,44.96
2022-10-10T11:12:29.382Z,48.02
2022-10-10T11:13:29.425Z,53.01
2022-10-10T11:14:29.369Z,50.43
2022-10-10T11:15:54.185Z,48.82
2022-10-10T11:17:34.959Z,45.12
2022-10-10T11:18:31.386Z,47.05
2022-10-10T11:19:29.330Z,52.53
2022-10-10T11:20:29.327Z,46.08
2022-10-10T11:21:29.312Z,46.57
2022-10-10T11:22:29.307Z,48.66
2022-10-10T11:23:29.590Z,51.56
2022-10-10T11:24:29.288Z,45.28
2022-10-10T11:25:29.300Z,48.66
2022-10-10T11:26:29.279Z,52.37
2022-10-10T11:27:29.267Z,49.95
2022-10-10T11:28:29.333Z,46.41
2022-10-10T11:29:29.271Z,54.14
2022-10-10T11:30:29.238Z,49.79
2022-10-10T11:31:29.229Z,48.34
2022-10-10T11:32:29.228Z,49.63
2022-10-10T11:33:29.224Z,48.66
2022-10-10T11:34:29.241Z,48.50
2022-10-10T11:35:29.195Z,52.05
2022-10-10T11:36:29.193Z,56.40
2022-10-10T11:37:29.181Z,53.82
2022-10-10T11:38:29.184Z,50.11
2022-10-10T11:39:29.201Z,53.66
2022-10-10T11:40:29.161Z,53.66
2022-10-10T11:41:29.152Z,52.05
2022-10-10T11:42:29.145Z,51.24
2022-10-10T11:43:29.132Z,53.82
2022-10-10T11:44:29.151Z,53.50
2022-10-10T11:45:29.116Z,56.72
2022-10-10T11:46:29.111Z,51.24
2022-10-10T11:47:29.108Z,50.60
2022-10-10T11:48:29.096Z,54.46
2022-10-10T11:49:29.116Z,53.17
2022-10-10T11:50:29.077Z,51.56
2022-10-10T11:51:29.076Z,54.14
2022-10-10T11:52:34.141Z,52.37
2022-10-10T11:53:31.055Z,56.24
2022-10-10T11:54:29.067Z,54.95
2022-10-10T11:55:30.040Z,52.53
2022-10-10T11:56:29.037Z,51.88
2022-10-10T11:57:29.026Z,55.11
2022-10-10T11:58:29.030Z,54.30
2022-10-10T11:59:29.045Z,52.05
2022-10-10T12:00:29.005Z,50.27
2022-10-10T12:01:29.000Z,48.82
2022-10-10T12:02:28.992Z,50.27
2022-10-10T12:03:28.986Z,53.50
2022-10-10T12:04:29.002Z,51.56
2022-10-10T12:05:28.967Z,48.66
2022-10-10T12:06:28.941Z,47.37
2022-10-10T12:07:29.948Z,44.63
2022-10-10T12:08:28.944Z,53.01
2022-10-10T12:09:28.966Z,49.63
2022-10-10T12:10:28.932Z,46.41
2022-10-10T12:11:28.919Z,52.05
2022-10-10T12:12:28.910Z,48.18
2022-10-10T12:13:28.903Z,52.85
2022-10-10T12:14:28.926Z,45.92
2022-10-10T12:15:28.891Z,47.21
2022-10-10T12:16:30.757Z,49.31
2022-10-10T12:17:29.877Z,50.76
2022-10-10T12:18:28.863Z,45.76
2022-10-10T12:19:28.866Z,51.56
2022-10-10T12:20:28.874Z,48.02
2022-10-10T12:21:28.834Z,52.05
2022-10-10T12:22:28.846Z,52.05
2022-10-10T12:23:28.821Z,53.98
2022-10-10T12:24:28.812Z,48.98
2022-10-10T12:25:28.830Z,47.86
2022-10-10T12:26:28.799Z,52.37
2022-10-10T12:27:28.799Z,52.53
2022-10-10T12:28:28.837Z,47.86
2022-10-10T12:29:28.776Z,48.02
2022-10-10T12:30:28.789Z,51.40
2022-10-10T12:31:28.758Z,49.63
2022-10-10T12:32:28.750Z,51.40
2022-10-10T12:33:28.748Z,52.05
2022-10-10T12:34:28.730Z,50.92
2022-10-10T12:35:28.752Z,53.01
2022-10-10T12:36:28.712Z,48.82
2022-10-10T12:37:28.731Z,46.73
2022-10-10T12:38:28.704Z,46.73
2022-10-10T12:39:28.700Z,52.85
2022-10-10T12:40:28.709Z,51.08
2022-10-10T12:41:28.680Z,50.92
2022-10-10T12:42:28.670Z,51.08
2022-10-10T12:43:28.662Z,50.60
2022-10-10T12:44:28.661Z,47.37
2022-10-10T12:45:28.675Z,48.34
2022-10-10T12:46:28.647Z,49.47
2022-10-10T12:47:46.348Z,51.40
2022-10-10T12:48:30.629Z,51.56
2022-10-10T12:49:28.621Z,48.02
2022-10-10T12:50:28.630Z,45.28
2022-10-10T12:51:28.601Z,53.50
2022-10-10T12:52:28.598Z,52.53
2022-10-10T12:53:28.592Z,53.50
2022-10-10T12:54:28.584Z,49.95